createdAt,value
2023-03-23T15:58:16.381Z,11.45
2023-03-23T16:00:45.761Z,10.98
2023-03-23T16:03:18.708Z,11.13
2023-03-23T16:05:46.725Z,11.00
2023-03-23T16:08:15.003Z,12.75
2023-03-23T16:10:43.453Z,13.10
2023-03-23T16:13:11.697Z,13.02
2023-03-23T16:15:38.767Z,9.10
2023-03-23T16:18:06.169Z,9.00
2023-03-23T16:20:33.530Z,10.30
2023-03-23T16:23:01.183Z,8.32
2023-03-23T16:25:28.533Z,9.00
2023-03-23T16:27:56.177Z,9.85
2023-03-23T16:30:25.883Z,10.52
2023-03-23T16:32:57.053Z,6.63
2023-03-23T16:35:25.015Z,6.88
2023-03-23T16:38:07.122Z,9.10
2023-03-23T16:40:37.079Z,6.93
2023-03-23T16:43:09.206Z,7.60
2023-03-23T16:45:40.494Z,7.32
2023-03-23T16:48:10.021Z,10.90
2023-03-23T16:50:39.590Z,14.27
2023-03-23T16:53:08.409Z,15.85
2023-03-23T16:55:37.156Z,8.40
2023-03-23T16:58:16.192Z,8.07
2023-03-23T17:00:48.206Z,8.43
2023-03-23T17:03:16.619Z,7.75
2023-03-23T17:05:45.258Z,10.90
2023-03-23T17:08:12.961Z,8.25
2023-03-23T17:10:42.417Z,8.43
2023-03-23T17:13:10.335Z,7.50
2023-03-23T17:15:41.015Z,8.15
2023-03-23T17:18:09.045Z,13.93
2023-03-23T17:20:36.493Z,14.85
2023-03-23T17:23:04.905Z,13.93
2023-03-23T17:25:32.887Z,13.57
2023-03-23T17:28:05.079Z,15.10
2023-03-23T17:30:33.872Z,17.30
2023-03-23T17:33:01.138Z,28.40
2023-03-23T17:35:28.530Z,39.58
2023-03-23T17:37:56.110Z,43.63
2023-03-23T17:40:23.622Z,35.47
2023-03-23T17:42:51.324Z,29.58
2023-03-23T17:45:18.572Z,33.78
2023-03-23T17:47:46.612Z,24.33
2023-03-23T17:50:14.353Z,22.23
2023-03-23T17:52:43.771Z,26.02
2023-03-23T17:55:11.807Z,21.40
2023-03-23T17:57:39.247Z,17.75
2023-03-23T18:00:08.811Z,16.90
2023-03-23T18:02:37.521Z,20.85
2023-03-23T18:05:06.657Z,19.67
2023-03-23T18:07:33.854Z,26.58
2023-03-23T18:10:01.175Z,30.90
2023-03-23T18:12:28.687Z,32.00
2023-03-23T18:14:57.645Z,24.35
2023-03-23T18:17:25.503Z,21.75
2023-03-23T18:19:52.632Z,16.30
2023-03-23T18:22:19.785Z,21.58
2023-03-23T18:24:47.539Z,21.05
2023-03-23T18:27:15.385Z,18.17
2023-03-23T18:29:43.292Z,17.15
2023-03-23T18:32:10.718Z,18.92
2023-03-23T18:34:42.036Z,13.40
2023-03-23T18:37:09.640Z,14.23
2023-03-23T18:39:38.344Z,19.73
2023-03-23T18:42:06.274Z,15.40
2023-03-23T18:44:33.628Z,17.20
2023-03-23T18:47:01.117Z,23.02
2023-03-23T18:49:29.061Z,18.50
2023-03-23T18:51:56.937Z,25.27
2023-03-23T18:54:24.087Z,19.13
2023-03-23T18:56:51.400Z,20.65
2023-03-23T18:59:18.513Z,23.73
2023-03-23T19:01:45.950Z,27.10
2023-03-23T19:04:13.725Z,21.77
2023-03-23T19:06:41.557Z,21.63
2023-03-23T19:09:09.144Z,20.65
2023-03-23T19:11:36.960Z,25.70
2023-03-23T19:14:04.381Z,29.10
2023-03-23T19:16:36.155Z,23.48
2023-03-23T19:19:05.198Z,27.98
2023-03-23T19:21:32.875Z,25.70
2023-03-23T19:24:01.585Z,23.73
2023-03-23T19:26:36.261Z,30.50
2023-03-23T19:31:38.184Z,21.42
2023-03-23T19:34:05.856Z,19.42
2023-03-23T19:36:33.504Z,13.68
2023-03-23T19:39:02.808Z,14.07
2023-03-23T19:41:31.419Z,13.05
2023-03-23T19:43:59.489Z,13.68
2023-03-23T19:46:30.317Z,23.88
2023-03-23T19:48:58.904Z,44.15
2023-03-23T19:51:27.574Z,23.35
2023-03-23T19:53:57.347Z,28.95
2023-03-23T19:56:25.305Z,37.00
2023-03-23T19:58:53.019Z,74.25
2023-03-23T20:01:21.357Z,31.90
2023-03-23T20:03:48.908Z,27.13
2023-03-23T20:06:16.853Z,26.63
2023-03-23T20:08:47.925Z,29.55
2023-03-23T20:11:18.786Z,31.92
2023-03-23T20:13:49.037Z,37.53
2023-03-23T20:16:17.735Z,25.85
2023-03-23T20:18:46.453Z,30.20
2023-03-23T20:21:19.772Z,27.67
2023-03-23T20:23:48.599Z,17.97
2023-03-23T20:26:19.731Z,17.50
2023-03-23T20:28:47.829Z,17.83
2023-03-23T20:31:23.746Z,17.65
2023-03-23T20:34:00.475Z,15.52
2023-03-23T20:36:40.711Z,15.40
2023-03-23T20:39:11.542Z,14.00
2023-03-23T20:41:40.489Z,14.77
2023-03-23T20:44:14.082Z,16.40
2023-03-23T20:46:43.480Z,13.38
2023-03-23T20:49:10.537Z,14.13
2023-03-23T20:51:38.034Z,14.70
2023-03-23T20:54:06.205Z,15.10
2023-03-23T20:56:34.552Z,13.90
2023-03-23T20:59:02.730Z,17.42
2023-03-23T21:01:30.236Z,15.73
2023-03-23T21:03:57.952Z,13.77
2023-03-23T21:06:28.498Z,14.38
2023-03-23T21:08:57.346Z,14.25
2023-03-23T21:11:27.080Z,11.18
2023-03-23T21:13:54.629Z,13.43
2023-03-23T21:16:23.906Z,14.10
2023-03-23T21:18:51.742Z,15.88
2023-03-23T21:21:19.118Z,16.05
2023-03-23T21:23:47.353Z,17.27
2023-03-23T21:26:17.311Z,18.70
2023-03-23T21:28:45.601Z,20.65
2023-03-23T21:31:17.330Z,21.48
2023-03-23T21:33:44.886Z,19.33
2023-03-23T21:36:12.549Z,18.33
2023-03-23T21:38:40.716Z,19.58
2023-03-23T21:41:11.560Z,18.00
2023-03-23T21:43:40.899Z,16.02
2023-03-23T21:46:09.785Z,19.02
2023-03-23T21:48:38.903Z,17.05
2023-03-23T21:51:08.234Z,13.98
2023-03-23T21:53:37.258Z,22.63
2023-03-23T21:56:06.748Z,22.58
2023-03-23T21:58:34.375Z,15.38
2023-03-23T22:01:02.581Z,16.25
2023-03-23T22:03:34.721Z,22.20
2023-03-23T22:06:11.578Z,14.82
2023-03-23T22:08:41.283Z,12.23
2023-03-23T22:11:14.408Z,14.93
2023-03-23T22:13:42.484Z,13.25
2023-03-23T22:16:14.767Z,14.68
2023-03-23T22:18:43.396Z,13.85
2023-03-23T22:21:12.178Z,13.70
2023-03-23T22:23:40.521Z,12.75
2023-03-23T22:26:08.669Z,14.57
2023-03-23T22:28:37.227Z,13.15
2023-03-23T22:31:07.658Z,17.90
2023-03-23T22:33:36.971Z,13.05
2023-03-23T22:36:06.815Z,15.52
2023-03-23T22:38:37.199Z,15.50
2023-03-23T22:41:07.175Z,19.88
2023-03-23T22:43:35.482Z,17.90
2023-03-23T22:46:03.248Z,20.42
2023-03-23T22:48:30.495Z,12.73
2023-03-23T22:50:58.586Z,15.75
2023-03-23T22:53:26.191Z,13.80
2023-03-23T22:55:56.460Z,13.23
2023-03-23T22:58:26.179Z,14.30
2023-03-23T23:01:04.407Z,13.98
2023-03-23T23:03:33.011Z,14.20
2023-03-23T23:06:00.914Z,15.05
2023-03-23T23:08:30.112Z,15.98
2023-03-23T23:10:59.123Z,18.60
2023-03-23T23:13:27.077Z,17.58
2023-03-23T23:15:56.615Z,17.10
2023-03-23T23:18:25.119Z,13.95
2023-03-23T23:20:54.997Z,12.95
2023-03-23T23:23:23.379Z,16.90
2023-03-23T23:25:51.861Z,20.67
2023-03-23T23:28:20.483Z,16.08
2023-03-23T23:30:48.540Z,14.82
2023-03-23T23:33:16.316Z,16.63
2023-03-23T23:35:43.581Z,14.02
2023-03-23T23:38:12.752Z,13.27
2023-03-23T23:40:43.019Z,15.10
2023-03-23T23:43:13.140Z,18.30
2023-03-23T23:45:40.920Z,17.00
2023-03-23T23:48:08.883Z,14.18
2023-03-23T23:50:36.740Z,15.95
2023-03-23T23:53:04.908Z,15.60
2023-03-23T23:55:32.814Z,19.92
2023-03-23T23:57:59.983Z,26.25
